Time,TemperatureF,DewpointF,PressureIn,WindDirection,WindDirectionDegrees,WindSpeedMPH,WindSpeedGustMPH,Humidity,HourlyPrecipIn,Conditions,Clouds,dailyrainin,SolarRadiationWatts/m^2,SoftwareType,DateUTC
2013-01-26 00:01:00,32.0,25.9,30.21,NW,304,0.0,0.0,78,0.00,,CLR,0.00,0.00,VWS V14.01,2013-01-26 06:01:00,
2013-01-26 00:06:00,32.0,27.4,30.21,NW,304,0.0,0.0,83,0.00,,CLR,0.00,0.00,VWS V14.01,2013-01-26 06:06:00,
2013-01-26 00:11:00,32.2,25.8,30.21,NW,304,0.0,0.0,77,0.00,,CLR,0.00,0.00,VWS V14.01,2013-01-26 06:11:00,
2013-01-26 00:16:00,32.4,25.7,30.21,NW,304,0.0,0.0,76,0.00,,CLR,0.00,0.00,VWS V14.01,2013-01-26 06:16:00,
2013-01-26 00:21:00,32.7,25.7,30.21,NW,304,0.0,0.0,75,0.00,,CLR,0.00,0.00,VWS V14.01,2013-01-26 06:21:00,
2013-01-26 00:26:00,32.8,25.4,30.21,NW,304,0.0,0.0,74,0.00,,CLR,0.00,0.00,VWS V14.01,2013-01-26 06:26:00,
2013-01-26 00:32:00,32.8,25.4,30.21,NW,304,0.0,0.0,74,0.00,,CLR,0.00,0.00,VWS V14.01,2013-01-26 06:32:00,
2013-01-26 00:37:00,32.9,25.5,30.21,NW,304,0.0,0.0,74,0.00,,CLR,0.00,0.00,VWS V14.01,2013-01-26 06:37:00,
2013-01-26 00:42:00,32.9,25.5,30.21,NW,304,0.0,0.0,74,0.00,,CLR,0.00,0.00,VWS V14.01,2013-01-26 06:42:00,
2013-01-26 00:47:00,32.8,25.4,30.21,NW,304,0.0,0.0,74,0.00,,CLR,0.00,0.00,VWS V14.01,2013-01-26 06:47:00,
2013-01-26 00:52:00,32.7,25.3,30.21,NW,304,0.0,0.0,74,0.00,,CLR,0.00,0.00,VWS V14.01,2013-01-26 06:52:00,
2013-01-26 00:57:00,32.5,25.1,30.21,NW,304,0.0,0.0,74,0.00,,CLR,0.00,0.00,VWS V14.01,2013-01-26 06:57:00,
2013-01-26 01:02:00,32.3,25.0,30.22,NW,304,0.0,0.0,74,0.00,,CLR,0.00,0.00,VWS V14.01,2013-01-26 07:02:00,
2013-01-26 01:07:00,32.1,25.1,30.22,NW,304,0.0,0.0,75,0.00,,CLR,0.00,0.00,VWS V14.01,2013-01-26 07:07:00,
2013-01-26 01:12:00,31.7,25.0,30.22,NW,304,0.0,0.0,76,0.00,,CLR,0.00,0.00,VWS V14.01,2013-01-26 07:12:00,
2013-01-26 01:17:00,31.4,25.0,30.22,NW,304,0.0,0.0,77,0.00,,CLR,0.00,0.00,VWS V14.01,2013-01-26 07:17:00,
2013-01-26 01:22:00,31.2,24.8,30.22,NW,304,0.0,0.0,77,0.00,,CLR,0.00,0.00,VWS V14.01,2013-01-26 07:22:00,
2013-01-26 01:27:00,31.0,25.0,30.22,NW,304,0.0,0.0,78,0.00,,CLR,0.00,0.00,VWS V14.01,2013-01-26 07:27:00,
2013-01-26 01:32:00,30.8,24.8,30.22,NW,304,0.0,0.0,78,0.00,,CLR,0.00,0.00,VWS V14.01,2013-01-26 07:32:00,
2013-01-26 01:37:00,30.9,24.9,30.22,NW,304,0.0,0.0,78,0.00,,CLR,0.00,0.00,VWS V14.01,2013-01-26 07:37:00,
2013-01-26 01:42:00,31.1,25.0,30.22,NW,304,0.0,0.0,78,0.00,,CLR,0.00,0.00,VWS V14.01,2013-01-26 07:42:00,
2013-01-26 01:47:00,31.3,24.9,30.21,NW,304,0.0,0.0,77,0.00,,CLR,0.00,0.00,VWS V14.01,2013-01-26 07:47:00,
2013-01-26 01:52:00,31.5,25.1,30.21,NW,304,0.0,0.0,77,0.00,,CLR,0.00,0.00,VWS V14.01,2013-01-26 07:52:00,
2013-01-26 01:57:00,31.5,25.1,30.21,NW,304,0.0,0.0,77,0.00,,CLR,0.00,0.00,VWS V14.01,2013-01-26 07:57:00,
2013-01-26 02:02:00,31.5,25.1,30.21,NW,304,0.0,0.0,77,0.00,,CLR,0.00,0.00,VWS V14.01,2013-01-26 08:02:00,
2013-01-26 02:07:00,31.4,24.7,30.21,NW,304,0.0,0.0,76,0.00,,CLR,0.00,0.00,VWS V14.01,2013-01-26 08:07:00,
2013-01-26 02:12:00,31.6,24.6,30.21,NW,304,0.0,0.0,75,0.00,,CLR,0.00,0.00,VWS V14.01,2013-01-26 08:12:00,
2013-01-26 02:17:00,31.7,25.0,30.19,NW,304,0.0,0.0,76,0.00,,CLR,0.00,0.00,VWS V14.01,2013-01-26 08:17:00,
2013-01-26 02:22:00,31.7,25.0,30.19,NW,304,0.0,0.0,76,0.00,,CLR,0.00,0.00,VWS V14.01,2013-01-26 08:22:00,
2013-01-26 02:27:00,31.5,24.8,30.19,NW,304,0.0,0.0,76,0.00,,CLR,0.00,0.00,VWS V14.01,2013-01-26 08:27:00,
2013-01-26 02:32:00,31.2,24.8,30.20,NW,304,0.0,0.0,77,0.00,,CLR,0.00,0.00,VWS V14.01,2013-01-26 08:32:00,
2013-01-26 02:37:00,31.0,24.3,30.20,NW,304,0.0,0.0,76,0.00,,CLR,0.00,0.00,VWS V14.01,2013-01-26 08:37:00,
2013-01-26 02:42:00,30.7,24.4,30.20,NW,304,0.0,0.0,77,0.00,,CLR,0.00,0.00,VWS V14.01,2013-01-26 08:42:00,
2013-01-26 02:47:00,30.4,24.4,30.21,NW,304,0.0,0.0,78,0.00,,CLR,0.00,0.00,VWS V14.01,2013-01-26 08:47:00,
2013-01-26 02:52:00,30.1,24.1,30.21,NW,304,0.0,0.0,78,0.00,,CLR,0.00,0.00,VWS V14.01,2013-01-26 08:52:00,
2013-01-26 02:58:00,29.9,23.9,30.21,NW,304,0.0,0.0,78,0.00,,CLR,0.00,0.00,VWS V14.01,2013-01-26 08:58:00,
2013-01-26 03:03:00,29.6,24.2,30.20,NW,304,0.0,0.0,80,0.00,,CLR,0.00,0.00,VWS V14.01,2013-01-26 09:03:00,
2013-01-26 03:08:00,29.4,24.3,30.20,NW,304,0.0,0.0,81,0.00,,CLR,0.00,0.00,VWS V14.01,2013-01-26 09:08:00,
2013-01-26 03:13:00,29.3,24.5,30.20,NW,304,0.0,0.0,82,0.00,,CLR,0.00,0.00,VWS V14.01,2013-01-26 09:13:00,
2013-01-26 03:18:00,29.2,24.1,30.20,NW,304,0.0,0.0,81,0.00,,CLR,0.00,0.00,VWS V14.01,2013-01-26 09:18:00,
2013-01-26 03:23:00,29.1,24.3,30.20,NW,304,0.0,0.0,82,0.00,,CLR,0.00,0.00,VWS V14.01,2013-01-26 09:23:00,
2013-01-26 03:28:00,29.0,24.2,30.20,NW,304,0.0,0.0,82,0.00,,CLR,0.00,0.00,VWS V14.01,2013-01-26 09:28:00,
2013-01-26 03:33:00,28.8,24.0,30.20,NW,304,0.0,0.0,82,0.00,,CLR,0.00,0.00,VWS V14.01,2013-01-26 09:33:00,
2013-01-26 03:38:00,28.7,23.9,30.20,NW,304,0.0,0.0,82,0.00,,CLR,0.00,0.00,VWS V14.01,2013-01-26 09:38:00,
2013-01-26 03:43:00,28.5,23.7,30.20,NW,304,0.0,0.0,82,0.00,,CLR,0.00,0.00,VWS V14.01,2013-01-26 09:43:00,
2013-01-26 03:48:00,28.4,23.9,30.20,NW,304,0.0,0.0,83,0.00,,CLR,0.00,0.00,VWS V14.01,2013-01-26 09:48:00,
2013-01-26 03:53:00,28.4,24.2,30.20,NW,304,0.0,0.0,84,0.00,,CLR,0.00,0.00,VWS V14.01,2013-01-26 09:53:00,
2013-01-26 03:58:00,28.4,24.2,30.20,NW,304,0.0,0.0,84,0.00,,CLR,0.00,0.00,VWS V14.01,2013-01-26 09:58:00,
2013-01-26 04:03:00,28.5,24.0,30.21,NW,304,0.0,0.0,83,0.00,,CLR,0.00,0.00,VWS V14.01,2013-01-26 10:03:00,
2013-01-26 04:08:00,28.5,24.0,30.21,NW,304,0.0,0.0,83,0.00,,CLR,0.00,0.00,VWS V14.01,2013-01-26 10:08:00,
2013-01-26 04:13:00,28.6,24.1,30.21,NW,304,0.0,0.0,83,0.00,,CLR,0.00,0.00,VWS V14.01,2013-01-26 10:13:00,
2013-01-26 04:18:00,28.8,24.6,30.21,NW,304,0.0,0.0,84,0.00,,CLR,0.00,0.00,VWS V14.01,2013-01-26 10:18:00,
2013-01-26 04:23:00,28.9,24.4,30.21,NW,304,0.0,0.0,83,0.00,,CLR,0.00,0.00,VWS V14.01,2013-01-26 10:23:00,
2013-01-26 04:28:00,29.0,24.5,30.21,NW,304,0.0,0.0,83,0.00,,CLR,0.00,0.00,VWS V14.01,2013-01-26 10:28:00,
2013-01-26 04:33:00,29.1,24.6,30.21,NW,304,0.0,0.0,83,0.00,,CLR,0.00,0.00,VWS V14.01,2013-01-26 10:33:00,
2013-01-26 04:38:00,29.2,24.7,30.21,NW,304,0.0,0.0,83,0.00,,CLR,0.00,0.00,VWS V14.01,2013-01-26 10:38:00,
2013-01-26 04:43:00,29.3,24.8,30.21,NW,304,0.0,0.0,83,0.00,,CLR,0.00,0.00,VWS V14.01,2013-01-26 10:43:00,
2013-01-26 04:48:00,29.3,24.8,30.21,NW,304,0.0,0.0,83,0.00,,CLR,0.00,0.00,VWS V14.01,2013-01-26 10:48:00,
2013-01-26 04:54:00,29.3,24.8,30.21,NW,304,0.0,0.0,83,0.00,,CLR,0.00,0.00,VWS V14.01,2013-01-26 10:54:00,
2013-01-26 04:59:00,29.4,24.9,30.21,NW,304,0.0,0.0,83,0.00,,CLR,0.00,0.00,VWS V14.01,2013-01-26 10:59:00,
2013-01-26 05:04:00,29.7,25.2,30.21,NW,304,0.0,0.0,83,0.00,,CLR,0.00,0.00,VWS V14.01,2013-01-26 11:04:00,
2013-01-26 05:09:00,29.8,25.0,30.21,NW,304,0.0,0.0,82,0.00,,CLR,0.00,0.00,VWS V14.01,2013-01-26 11:09:00,
2013-01-26 05:14:00,29.8,25.3,30.21,NW,304,0.0,0.0,83,0.00,,CLR,0.00,0.00,VWS V14.01,2013-01-26 11:14:00,
2013-01-26 05:19:00,29.8,25.3,30.21,NW,304,0.0,0.0,83,0.00,,CLR,0.00,0.00,VWS V14.01,2013-01-26 11:19:00,
2013-01-26 05:24:00,29.8,25.3,30.21,NW,304,0.0,0.0,83,0.00,,CLR,0.00,0.00,VWS V14.01,2013-01-26 11:24:00,
2013-01-26 05:29:00,29.8,25.0,30.21,NW,304,0.0,0.0,82,0.00,,CLR,0.00,0.00,VWS V14.01,2013-01-26 11:29:00,
2013-01-26 05:34:00,30.0,25.2,30.21,NW,304,0.0,0.0,82,0.00,,CLR,0.00,0.00,VWS V14.01,2013-01-26 11:34:00,
2013-01-26 05:39:00,30.1,25.0,30.21,NW,304,0.0,0.0,81,0.00,,CLR,0.00,0.00,VWS V14.01,2013-01-26 11:39:00,
2013-01-26 05:44:00,30.1,25.0,30.21,NW,304,0.0,0.0,81,0.00,,CLR,0.00,0.00,VWS V14.01,2013-01-26 11:44:00,
2013-01-26 05:49:00,30.1,25.0,30.21,NW,304,0.0,0.0,81,0.00,,CLR,0.00,0.00,VWS V14.01,2013-01-26 11:49:00,
2013-01-26 05:54:00,30.1,25.3,30.21,NW,304,0.0,0.0,82,0.00,,CLR,0.00,0.00,VWS V14.01,2013-01-26 11:54:00,
2013-01-26 05:59:00,30.1,25.0,30.21,NW,304,0.0,0.0,81,0.00,,CLR,0.00,0.00,VWS V14.01,2013-01-26 11:59:00,
2013-01-26 06:04:00,30.1,25.0,30.21,NW,304,0.0,0.0,81,0.00,,CLR,0.00,0.00,VWS V14.01,2013-01-26 12:04:00,
2013-01-26 06:09:00,30.0,24.9,30.21,NW,304,0.0,0.0,81,0.00,,CLR,0.00,0.00,VWS V14.01,2013-01-26 12:09:00,
2013-01-26 06:14:00,30.0,24.9,30.21,NW,304,0.0,0.0,81,0.00,,CLR,0.00,0.00,VWS V14.01,2013-01-26 12:14:00,
2013-01-26 06:19:00,29.9,24.8,30.22,NW,304,0.0,0.0,81,0.00,,CLR,0.00,0.00,VWS V14.01,2013-01-26 12:19:00,
2013-01-26 06:24:00,29.8,25.0,30.22,NW,304,0.0,0.0,82,0.00,,CLR,0.00,0.00,VWS V14.01,2013-01-26 12:24:00,
2013-01-26 06:29:00,29.7,24.9,30.22,NW,304,0.0,0.0,82,0.00,,CLR,0.00,0.00,VWS V14.01,2013-01-26 12:29:00,
2013-01-26 06:34:00,29.9,25.1,30.22,NW,304,0.0,1.0,82,0.00,,CLR,0.00,0.00,VWS V14.01,2013-01-26 12:34:00,
2013-01-26 06:39:00,30.0,25.2,30.22,NW,304,0.0,0.0,82,0.00,,CLR,0.00,0.00,VWS V14.01,2013-01-26 12:39:00,
2013-01-26 06:44:00,29.9,25.1,30.22,NW,304,0.0,0.0,82,0.00,,CLR,0.00,0.00,VWS V14.01,2013-01-26 12:44:00,
2013-01-26 06:49:00,29.9,25.1,30.23,NW,304,0.0,0.0,82,0.00,,CLR,0.00,0.00,VWS V14.01,2013-01-26 12:49:00,
2013-01-26 06:54:00,29.9,25.1,30.23,NW,304,0.0,0.0,82,0.00,,CLR,0.00,0.00,VWS V14.01,2013-01-26 12:54:00,
2013-01-26 07:00:00,29.9,25.1,30.23,NW,304,0.0,0.0,82,0.00,,CLR,0.00,0.00,VWS V14.01,2013-01-26 13:00:00,
2013-01-26 07:05:00,29.9,25.1,30.23,NW,304,0.0,0.0,82,0.00,,CLR,0.00,0.00,VWS V14.01,2013-01-26 13:05:00,
2013-01-26 07:10:00,29.9,25.1,30.23,NW,304,0.0,0.0,82,0.00,,CLR,0.00,0.00,VWS V14.01,2013-01-26 13:10:00,
2013-01-26 07:15:00,29.8,25.0,30.23,NW,304,0.0,0.0,82,0.00,,CLR,0.00,0.00,VWS V14.01,2013-01-26 13:15:00,
2013-01-26 07:20:00,29.9,25.1,30.23,NW,304,0.0,0.0,82,0.00,,CLR,0.00,0.00,VWS V14.01,2013-01-26 13:20:00,
2013-01-26 07:25:00,29.9,25.1,30.23,NW,304,0.0,0.0,82,0.00,,CLR,0.00,0.00,VWS V14.01,2013-01-26 13:25:00,
2013-01-26 07:30:00,30.0,25.2,30.22,NW,304,0.0,0.0,82,0.00,,CLR,0.00,0.00,VWS V14.01,2013-01-26 13:30:00,
2013-01-26 07:35:00,30.0,25.2,30.22,NW,304,0.0,0.0,82,0.00,,CLR,0.00,7.00,VWS V14.01,2013-01-26 13:35:00,
2013-01-26 07:40:00,30.0,25.5,30.22,NW,304,0.0,0.0,83,0.00,,CLR,0.00,14.00,VWS V14.01,2013-01-26 13:40:00,
2013-01-26 07:45:00,29.9,25.4,30.22,NW,304,0.0,0.0,83,0.00,,CLR,0.00,21.00,VWS V14.01,2013-01-26 13:45:00,
2013-01-26 07:50:00,30.0,25.8,30.22,NW,304,0.0,0.0,84,0.00,,CLR,0.00,26.00,VWS V14.01,2013-01-26 13:50:00,
2013-01-26 07:55:00,30.0,25.8,30.22,NW,304,0.0,0.0,84,0.00,,CLR,0.00,30.00,VWS V14.01,2013-01-26 13:55:00,
2013-01-26 08:00:00,30.0,25.8,30.23,NW,304,0.0,0.0,84,0.00,,CLR,0.00,37.00,VWS V14.01,2013-01-26 14:00:00,
2013-01-26 08:05:00,30.1,26.1,30.23,NW,304,0.0,0.0,85,0.00,,CLR,0.00,42.00,VWS V14.01,2013-01-26 14:05:00,
2013-01-26 08:10:00,30.1,26.1,30.23,NW,304,0.0,0.0,85,0.00,,CLR,0.00,46.00,VWS V14.01,2013-01-26 14:10:00,
2013-01-26 08:15:00,30.1,26.1,30.24,NW,304,0.0,0.0,85,0.00,,CLR,0.00,51.00,VWS V14.01,2013-01-26 14:15:00,
2013-01-26 08:20:00,30.1,26.1,30.24,NW,304,0.0,0.0,85,0.00,,CLR,0.00,56.00,VWS V14.01,2013-01-26 14:20:00,
2013-01-26 08:25:00,30.2,26.2,30.24,NW,304,0.0,0.0,85,0.00,,CLR,0.00,63.00,VWS V14.01,2013-01-26 14:25:00,
2013-01-26 08:30:00,30.3,26.6,30.24,NW,304,0.0,0.0,86,0.00,,CLR,0.00,81.00,VWS V14.01,2013-01-26 14:30:00,
2013-01-26 08:35:00,30.5,26.8,30.24,NW,304,0.0,0.0,86,0.00,,CLR,0.00,86.00,VWS V14.01,2013-01-26 14:35:00,
2013-01-26 08:40:00,30.7,27.0,30.24,NW,304,0.0,0.0,86,0.00,,CLR,0.00,95.00,VWS V14.01,2013-01-26 14:40:00,
2013-01-26 08:46:00,31.0,27.3,30.24,NW,304,0.0,0.0,86,0.00,,CLR,0.00,105.00,VWS V14.01,2013-01-26 14:46:00,
2013-01-26 08:51:00,31.3,27.9,30.24,NW,304,0.0,0.0,87,0.00,,CLR,0.00,121.00,VWS V14.01,2013-01-26 14:51:00,
2013-01-26 08:56:00,31.8,28.4,30.24,NW,304,0.0,0.0,87,0.00,,CLR,0.00,128.00,VWS V14.01,2013-01-26 14:56:00,
2013-01-26 09:01:00,32.3,28.9,30.24,NW,304,0.0,0.0,87,0.00,,CLR,0.00,137.00,VWS V14.01,2013-01-26 15:01:00,
2013-01-26 09:06:00,32.8,29.4,30.24,NW,304,0.0,0.0,87,0.00,,CLR,0.00,137.00,VWS V14.01,2013-01-26 15:06:00,
2013-01-26 09:11:00,33.4,29.7,30.24,NW,304,0.0,0.0,86,0.00,,CLR,0.00,148.00,VWS V14.01,2013-01-26 15:11:00,
2013-01-26 09:16:00,34.0,29.7,30.24,NE,48,0.0,0.0,84,0.00,,CLR,0.00,160.00,VWS V14.01,2013-01-26 15:16:00,
2013-01-26 09:21:00,34.4,29.8,30.24,NE,49,0.0,0.0,83,0.00,,CLR,0.00,185.00,VWS V14.01,2013-01-26 15:21:00,
2013-01-26 09:26:00,35.2,29.7,30.24,NE,48,0.0,0.0,80,0.00,,CLR,0.00,176.00,VWS V14.01,2013-01-26 15:26:00,
2013-01-26 09:31:00,36.1,29.3,30.24,South,182,0.0,0.0,76,0.00,,CLR,0.00,185.00,VWS V14.01,2013-01-26 15:31:00,
2013-01-26 09:36:00,37.3,29.1,30.24,SE,137,2.0,2.0,72,0.00,,CLR,0.00,297.00,VWS V14.01,2013-01-26 15:36:00,
2013-01-26 09:41:00,38.6,30.0,30.24,South,190,0.0,0.0,71,0.00,,CLR,0.00,427.00,VWS V14.01,2013-01-26 15:41:00,
2013-01-26 09:46:00,40.0,28.8,30.24,ESE,105,3.0,6.0,64,0.00,,CLR,0.00,225.00,VWS V14.01,2013-01-26 15:46:00,
2013-01-26 09:51:00,41.1,29.1,30.24,SSE,152,0.0,0.0,62,0.00,,CLR,0.00,218.00,VWS V14.01,2013-01-26 15:51:00,
2013-01-26 09:56:00,42.0,29.1,30.24,SE,142,5.0,5.0,60,0.00,,CLR,0.00,239.00,VWS V14.01,2013-01-26 15:56:00,
2013-01-26 10:01:00,43.1,28.9,30.24,East,96,0.0,5.0,57,0.00,,CLR,0.00,485.00,VWS V14.01,2013-01-26 16:01:00,
2013-01-26 10:06:00,44.2,29.1,30.24,SSW,194,1.0,1.0,55,0.00,,CLR,0.00,424.00,VWS V14.01,2013-01-26 16:06:00,
2013-01-26 10:11:00,45.2,29.6,30.24,East,97,6.0,6.0,54,0.00,,CLR,0.00,436.00,VWS V14.01,2013-01-26 16:11:00,
2013-01-26 10:16:00,46.1,29.5,30.24,SE,133,0.0,0.0,52,0.00,,CLR,0.00,448.00,VWS V14.01,2013-01-26 16:16:00,
2013-01-26 10:21:00,46.8,29.6,30.24,ESE,113,0.0,1.0,51,0.00,,CLR,0.00,457.00,VWS V14.01,2013-01-26 16:21:00,
2013-01-26 10:26:00,47.8,29.6,30.24,SE,137,5.0,9.0,49,0.00,,CLR,0.00,469.00,VWS V14.01,2013-01-26 16:26:00,
2013-01-26 10:31:00,48.4,28.6,30.24,SE,142,0.0,1.0,46,0.00,,CLR,0.00,482.00,VWS V14.01,2013-01-26 16:31:00,
2013-01-26 10:36:00,49.0,28.0,30.24,SE,141,0.0,5.0,44,0.00,,CLR,0.00,485.00,VWS V14.01,2013-01-26 16:36:00,
2013-01-26 10:41:00,49.4,29.0,30.24,SSE,164,0.0,1.0,45,0.00,,CLR,0.00,496.00,VWS V14.01,2013-01-26 16:41:00,
2013-01-26 10:47:00,50.1,28.5,30.23,SW,232,0.0,6.0,43,0.00,,CLR,0.00,506.00,VWS V14.01,2013-01-26 16:47:00,
2013-01-26 10:52:00,50.5,27.1,30.23,SE,134,1.0,5.0,40,0.00,,CLR,0.00,513.00,VWS V14.01,2013-01-26 16:52:00,
2013-01-26 10:57:00,50.8,26.1,30.23,SE,133,4.0,11.0,38,0.00,,CLR,0.00,522.00,VWS V14.01,2013-01-26 16:57:00,
2013-01-26 11:02:00,50.8,28.0,30.23,ESE,123,0.0,4.0,41,0.00,,CLR,0.00,533.00,VWS V14.01,2013-01-26 17:02:00,
2013-01-26 11:07:00,51.1,27.0,30.23,East,86,2.0,8.0,39,0.00,,CLR,0.00,543.00,VWS V14.01,2013-01-26 17:07:00,
2013-01-26 11:12:00,51.5,27.4,30.23,SE,134,1.0,10.0,39,0.00,,CLR,0.00,555.00,VWS V14.01,2013-01-26 17:12:00,
2013-01-26 11:17:00,51.9,28.4,30.23,SSE,151,1.0,5.0,40,0.00,,CLR,0.00,557.00,VWS V14.01,2013-01-26 17:17:00,
2013-01-26 11:22:00,52.2,27.4,30.23,SE,129,0.0,8.0,38,0.00,,CLR,0.00,561.00,VWS V14.01,2013-01-26 17:22:00,
2013-01-26 11:27:00,52.7,27.8,30.23,SSE,161,3.0,6.0,38,0.00,,CLR,0.00,566.00,VWS V14.01,2013-01-26 17:27:00,
2013-01-26 11:32:00,53.1,29.4,30.22,East,93,0.0,1.0,40,0.00,,CLR,0.00,570.00,VWS V14.01,2013-01-26 17:32:00,
2013-01-26 11:37:00,53.5,28.5,30.22,SSE,159,0.0,7.0,38,0.00,,CLR,0.00,575.00,VWS V14.01,2013-01-26 17:37:00,
2013-01-26 11:42:00,54.0,27.0,30.22,South,176,0.0,8.0,35,0.00,,CLR,0.00,578.00,VWS V14.01,2013-01-26 17:42:00,
2013-01-26 11:47:00,54.3,27.2,30.22,ESE,102,0.0,10.0,35,0.00,,CLR,0.00,584.00,VWS V14.01,2013-01-26 17:47:00,
2013-01-26 11:52:00,54.5,27.4,30.22,SSE,155,1.0,5.0,35,0.00,,CLR,0.00,564.00,VWS V14.01,2013-01-26 17:52:00,
2013-01-26 11:57:00,54.6,27.5,30.22,South,172,0.0,5.0,35,0.00,,CLR,0.00,573.00,VWS V14.01,2013-01-26 17:57:00,
2013-01-26 12:02:00,54.5,28.1,30.22,SE,128,6.0,6.0,36,0.00,,CLR,0.00,566.00,VWS V14.01,2013-01-26 18:02:00,
2013-01-26 12:07:00,54.6,28.2,30.22,ESE,109,3.0,3.0,36,0.00,,CLR,0.00,506.00,VWS V14.01,2013-01-26 18:07:00,
2013-01-26 12:12:00,54.6,27.5,30.22,SE,128,3.0,5.0,35,0.00,,CLR,0.00,468.00,VWS V14.01,2013-01-26 18:12:00,
2013-01-26 12:17:00,54.5,26.7,30.21,SE,146,0.0,5.0,34,0.00,,CLR,0.00,478.00,VWS V14.01,2013-01-26 18:17:00,
2013-01-26 12:23:00,54.8,28.4,30.21,South,176,0.0,4.0,36,0.00,,CLR,0.00,540.00,VWS V14.01,2013-01-26 18:23:00,
2013-01-26 12:28:00,54.9,28.5,30.21,ESE,113,0.0,7.0,36,0.00,,CLR,0.00,548.00,VWS V14.01,2013-01-26 18:28:00,
2013-01-26 12:33:00,55.2,28.7,30.20,SE,126,5.0,6.0,36,0.00,,CLR,0.00,570.00,VWS V14.01,2013-01-26 18:33:00,
2013-01-26 12:38:00,55.4,28.2,30.20,SE,128,2.0,8.0,35,0.00,,CLR,0.00,599.00,VWS V14.01,2013-01-26 18:38:00,
2013-01-26 12:43:00,55.5,27.6,30.20,East,79,3.0,6.0,34,0.00,,CLR,0.00,592.00,VWS V14.01,2013-01-26 18:43:00,
2013-01-26 12:48:00,55.5,29.0,30.19,ESE,115,2.0,9.0,36,0.00,,CLR,0.00,575.00,VWS V14.01,2013-01-26 18:48:00,
2013-01-26 12:53:00,55.7,28.5,30.19,South,178,0.0,6.0,35,0.00,,CLR,0.00,589.00,VWS V14.01,2013-01-26 18:53:00,
2013-01-26 12:58:00,56.1,28.1,30.19,ESE,114,5.0,6.0,34,0.00,,CLR,0.00,592.00,VWS V14.01,2013-01-26 18:58:00,
2013-01-26 13:03:00,56.4,29.8,30.18,SSW,194,0.0,3.0,36,0.00,,CLR,0.00,592.00,VWS V14.01,2013-01-26 19:03:00,
2013-01-26 13:08:00,56.9,28.8,30.18,South,188,8.0,8.0,34,0.00,,CLR,0.00,571.00,VWS V14.01,2013-01-26 19:08:00,
2013-01-26 13:13:00,56.9,28.8,30.18,South,171,4.0,7.0,34,0.00,,CLR,0.00,582.00,VWS V14.01,2013-01-26 19:13:00,
2013-01-26 13:18:00,57.1,28.3,30.17,South,171,2.0,5.0,33,0.00,,CLR,0.00,584.00,VWS V14.01,2013-01-26 19:18:00,
2013-01-26 13:23:00,57.4,27.8,30.17,ESE,113,4.0,7.0,32,0.00,,CLR,0.00,582.00,VWS V14.01,2013-01-26 19:23:00,
2013-01-26 13:28:00,57.6,28.7,30.17,ESE,115,7.0,7.0,33,0.00,,CLR,0.00,575.00,VWS V14.01,2013-01-26 19:28:00,
2013-01-26 13:33:00,57.8,27.4,30.16,SSW,211,0.0,12.0,31,0.00,,CLR,0.00,568.00,VWS V14.01,2013-01-26 19:33:00,
2013-01-26 13:38:00,58.1,27.6,30.16,SSW,194,5.0,9.0,31,0.00,,CLR,0.00,561.00,VWS V14.01,2013-01-26 19:38:00,
2013-01-26 13:43:00,58.2,27.7,30.16,ESE,119,2.0,9.0,31,0.00,,CLR,0.00,557.00,VWS V14.01,2013-01-26 19:43:00,
2013-01-26 13:48:00,58.4,28.7,30.15,South,172,6.0,6.0,32,0.00,,CLR,0.00,547.00,VWS V14.01,2013-01-26 19:48:00,
2013-01-26 13:53:00,58.6,27.3,30.15,SE,146,0.0,6.0,30,0.00,,CLR,0.00,540.00,VWS V14.01,2013-01-26 19:53:00,
2013-01-26 13:58:00,58.7,28.9,30.15,SSE,157,0.0,7.0,32,0.00,,CLR,0.00,534.00,VWS V14.01,2013-01-26 19:58:00,
2013-01-26 14:03:00,58.9,28.3,30.14,SSW,206,0.0,4.0,31,0.00,,CLR,0.00,524.00,VWS V14.01,2013-01-26 20:03:00,
2013-01-26 14:08:00,59.0,27.6,30.14,ESE,115,2.0,7.0,30,0.00,,CLR,0.00,515.00,VWS V14.01,2013-01-26 20:08:00,
2013-01-26 14:13:00,59.0,26.8,30.14,East,94,0.0,5.0,29,0.00,,CLR,0.00,510.00,VWS V14.01,2013-01-26 20:13:00,
2013-01-26 14:19:00,59.0,27.6,30.13,SE,143,1.0,7.0,30,0.00,,CLR,0.00,501.00,VWS V14.01,2013-01-26 20:19:00,
2013-01-26 14:24:00,59.0,26.8,30.13,SE,129,2.0,10.0,29,0.00,,CLR,0.00,487.00,VWS V14.01,2013-01-26 20:24:00,
2013-01-26 14:29:00,59.0,26.8,30.13,ESE,103,0.0,8.0,29,0.00,,CLR,0.00,476.00,VWS V14.01,2013-01-26 20:29:00,
2013-01-26 14:34:00,58.7,26.5,30.13,SE,133,0.0,8.0,29,0.00,,CLR,0.00,462.00,VWS V14.01,2013-01-26 20:34:00,
2013-01-26 14:39:00,59.0,28.4,30.13,South,187,0.0,7.0,31,0.00,,CLR,0.00,454.00,VWS V14.01,2013-01-26 20:39:00,
2013-01-26 14:44:00,59.0,26.8,30.13,SSE,153,3.0,5.0,29,0.00,,CLR,0.00,436.00,VWS V14.01,2013-01-26 20:44:00,
2013-01-26 14:49:00,59.0,26.8,30.13,SSE,154,3.0,7.0,29,0.00,,CLR,0.00,422.00,VWS V14.01,2013-01-26 20:49:00,
2013-01-26 14:54:00,59.0,27.6,30.13,SE,128,0.0,4.0,30,0.00,,CLR,0.00,415.00,VWS V14.01,2013-01-26 20:54:00,
2013-01-26 14:59:00,59.0,27.6,30.13,East,95,5.0,9.0,30,0.00,,CLR,0.00,397.00,VWS V14.01,2013-01-26 20:59:00,
2013-01-26 15:04:00,58.8,26.6,30.13,SSE,157,2.0,9.0,29,0.00,,CLR,0.00,390.00,VWS V14.01,2013-01-26 21:04:00,
2013-01-26 15:09:00,58.5,26.4,30.13,SE,135,0.0,7.0,29,0.00,,CLR,0.00,387.00,VWS V14.01,2013-01-26 21:09:00,
2013-01-26 15:14:00,58.8,26.6,30.13,SE,144,5.0,9.0,29,0.00,,CLR,0.00,381.00,VWS V14.01,2013-01-26 21:14:00,
2013-01-26 15:19:00,59.0,26.8,30.13,SSE,167,0.0,8.0,29,0.00,,CLR,0.00,378.00,VWS V14.01,2013-01-26 21:19:00,
2013-01-26 15:24:00,58.9,25.9,30.13,SSW,197,1.0,8.0,28,0.00,,CLR,0.00,369.00,VWS V14.01,2013-01-26 21:24:00,
2013-01-26 15:29:00,58.7,25.7,30.13,South,171,0.0,5.0,28,0.00,,CLR,0.00,353.00,VWS V14.01,2013-01-26 21:29:00,
2013-01-26 15:34:00,58.5,26.4,30.13,SSE,168,1.0,7.0,29,0.00,,CLR,0.00,334.00,VWS V14.01,2013-01-26 21:34:00,
2013-01-26 15:39:00,58.5,26.4,30.13,SSE,157,5.0,5.0,29,0.00,,CLR,0.00,272.00,VWS V14.01,2013-01-26 21:39:00,
2013-01-26 15:44:00,58.5,26.4,30.13,South,185,1.0,8.0,29,0.00,,CLR,0.00,264.00,VWS V14.01,2013-01-26 21:44:00,
2013-01-26 15:49:00,58.2,26.1,30.12,SSE,150,3.0,8.0,29,0.00,,CLR,0.00,262.00,VWS V14.01,2013-01-26 21:49:00,
2013-01-26 15:54:00,58.0,27.6,30.12,SE,136,2.0,5.0,31,0.00,,CLR,0.00,279.00,VWS V14.01,2013-01-26 21:54:00,
2013-01-26 15:59:00,58.0,27.6,30.12,SSW,196,2.0,7.0,31,0.00,,CLR,0.00,84.00,VWS V14.01,2013-01-26 21:59:00,
2013-01-26 16:04:00,57.9,27.5,30.12,SSE,167,2.0,6.0,31,0.00,,CLR,0.00,237.00,VWS V14.01,2013-01-26 22:04:00,
2013-01-26 16:09:00,57.8,27.4,30.12,SSE,160,0.0,2.0,31,0.00,,CLR,0.00,216.00,VWS V14.01,2013-01-26 22:09:00,
2013-01-26 16:14:00,57.7,26.5,30.12,SE,134,0.0,12.0,30,0.00,,CLR,0.00,206.00,VWS V14.01,2013-01-26 22:14:00,
2013-01-26 16:20:00,57.6,26.4,30.12,SE,134,0.0,6.0,30,0.00,,CLR,0.00,202.00,VWS V14.01,2013-01-26 22:20:00,
2013-01-26 16:25:00,57.3,26.2,30.12,ESE,117,3.0,8.0,30,0.00,,CLR,0.00,234.00,VWS V14.01,2013-01-26 22:25:00,
2013-01-26 16:30:00,57.0,25.9,30.12,SSW,205,0.0,6.0,30,0.00,,CLR,0.00,207.00,VWS V14.01,2013-01-26 22:30:00,
2013-01-26 16:35:00,56.6,26.3,30.12,SE,142,2.0,9.0,31,0.00,,CLR,0.00,53.00,VWS V14.01,2013-01-26 22:35:00,
2013-01-26 16:40:00,56.1,25.9,30.12,SW,228,1.0,6.0,31,0.00,,CLR,0.00,69.00,VWS V14.01,2013-01-26 22:40:00,
2013-01-26 16:45:00,55.6,25.5,30.13,SE,134,0.0,5.0,31,0.00,,CLR,0.00,39.00,VWS V14.01,2013-01-26 22:45:00,
2013-01-26 16:50:00,55.1,25.0,30.13,SSE,161,0.0,2.0,31,0.00,,CLR,0.00,32.00,VWS V14.01,2013-01-26 22:50:00,
2013-01-26 16:55:00,54.5,25.3,30.13,SSE,160,0.0,6.0,32,0.00,,CLR,0.00,35.00,VWS V14.01,2013-01-26 22:55:00,
2013-01-26 17:00:00,54.0,24.8,30.12,SSE,150,0.0,4.0,32,0.00,,CLR,0.00,25.00,VWS V14.01,2013-01-26 23:00:00,
2013-01-26 17:05:00,53.5,24.4,30.12,SE,129,1.0,7.0,32,0.00,,CLR,0.00,16.00,VWS V14.01,2013-01-26 23:05:00,
2013-01-26 17:10:00,53.1,24.8,30.12,SE,129,0.0,2.0,33,0.00,,CLR,0.00,14.00,VWS V14.01,2013-01-26 23:10:00,
2013-01-26 17:15:00,52.6,23.6,30.12,SSE,157,2.0,5.0,32,0.00,,CLR,0.00,11.00,VWS V14.01,2013-01-26 23:15:00,
2013-01-26 17:20:00,52.3,24.1,30.12,SSE,167,0.0,3.0,33,0.00,,CLR,0.00,5.00,VWS V14.01,2013-01-26 23:20:00,
2013-01-26 17:25:00,52.0,23.8,30.12,ESE,107,0.0,3.0,33,0.00,,CLR,0.00,0.00,VWS V14.01,2013-01-26 23:25:00,
2013-01-26 17:30:00,51.8,23.6,30.12,SE,134,0.0,3.0,33,0.00,,CLR,0.00,0.00,VWS V14.01,2013-01-26 23:30:00,
2013-01-26 17:35:00,51.5,23.4,30.12,SSE,153,0.0,4.0,33,0.00,,CLR,0.00,0.00,VWS V14.01,2013-01-26 23:35:00,
2013-01-26 17:40:00,51.3,23.2,30.12,SSE,153,0.0,1.0,33,0.00,,CLR,0.00,0.00,VWS V14.01,2013-01-26 23:40:00,
2013-01-26 17:45:00,51.1,23.7,30.11,SSE,153,0.0,1.0,34,0.00,,CLR,0.00,0.00,VWS V14.01,2013-01-26 23:45:00,
2013-01-26 17:50:00,51.0,23.6,30.11,SSE,149,0.0,2.0,34,0.00,,CLR,0.00,0.00,VWS V14.01,2013-01-26 23:50:00,
2013-01-26 17:55:00,50.9,23.5,30.11,SSE,149,1.0,2.0,34,0.00,,CLR,0.00,0.00,VWS V14.01,2013-01-26 23:55:00,
2013-01-26 18:00:00,50.7,24.1,30.11,SSE,149,0.0,1.0,35,0.00,,FEW080,0.00,0.00,VWS V14.01,2013-01-27 00:00:00,
2013-01-26 18:05:00,50.6,24.0,30.11,SSE,149,0.0,0.0,35,0.00,,FEW080,0.00,0.00,VWS V14.01,2013-01-27 00:05:00,
2013-01-26 18:10:00,50.5,24.6,30.11,SSE,149,0.0,2.0,36,0.00,,FEW080,0.00,0.00,VWS V14.01,2013-01-27 00:10:00,
2013-01-26 18:15:00,50.3,25.0,30.11,SE,132,0.0,4.0,37,0.00,,FEW080,0.00,0.00,VWS V14.01,2013-01-27 00:15:00,
2013-01-26 18:20:00,50.1,24.9,30.11,SSE,151,0.0,2.0,37,0.00,,FEW080,0.00,0.00,VWS V14.01,2013-01-27 00:20:00,
2013-01-26 18:25:00,49.9,25.3,30.11,SE,132,0.0,5.0,38,0.00,,FEW080,0.00,0.00,VWS V14.01,2013-01-27 00:25:00,
2013-01-26 18:30:00,49.8,24.6,30.11,SE,142,0.0,7.0,37,0.00,,FEW080,0.00,0.00,VWS V14.01,2013-01-27 00:30:00,
2013-01-26 18:36:00,49.7,25.1,30.11,SE,138,0.0,5.0,38,0.00,,FEW080,0.00,0.00,VWS V14.01,2013-01-27 00:36:00,
2013-01-26 18:41:00,49.6,25.0,30.11,SE,137,1.0,3.0,38,0.00,,FEW080,0.00,0.00,VWS V14.01,2013-01-27 00:41:00,
2013-01-26 18:46:00,49.5,25.0,30.11,ESE,111,2.0,8.0,38,0.00,,FEW080,0.00,0.00,VWS V14.01,2013-01-27 00:46:00,
2013-01-26 18:51:00,49.4,24.9,30.11,SE,130,0.0,0.0,38,0.00,,FEW080,0.00,0.00,VWS V14.01,2013-01-27 00:51:00,
2013-01-26 18:56:00,49.2,25.3,30.11,South,190,3.0,3.0,39,0.00,,FEW080,0.00,0.00,VWS V14.01,2013-01-27 00:56:00,
2013-01-26 19:01:00,49.2,24.7,30.11,ESE,115,0.0,1.0,38,0.00,,BKN080,0.00,0.00,VWS V14.01,2013-01-27 01:01:00,
2013-01-26 19:06:00,49.0,25.1,30.11,East,99,0.0,0.0,39,0.00,,BKN080,0.00,0.00,VWS V14.01,2013-01-27 01:06:00,
2013-01-26 19:11:00,48.9,25.7,30.11,ESE,122,3.0,3.0,40,0.00,,BKN080,0.00,0.00,VWS V14.01,2013-01-27 01:11:00,
2013-01-26 19:16:00,48.8,25.6,30.12,SE,141,0.0,4.0,40,0.00,,BKN080,0.00,0.00,VWS V14.01,2013-01-27 01:16:00,
2013-01-26 19:21:00,48.8,25.6,30.12,South,184,0.0,1.0,40,0.00,,BKN080,0.00,0.00,VWS V14.01,2013-01-27 01:21:00,
2013-01-26 19:26:00,48.9,25.7,30.12,SE,125,0.0,0.0,40,0.00,,BKN080,0.00,0.00,VWS V14.01,2013-01-27 01:26:00,
2013-01-26 19:31:00,48.9,25.7,30.12,SE,145,0.0,5.0,40,0.00,,BKN080,0.00,0.00,VWS V14.01,2013-01-27 01:31:00,
2013-01-26 19:36:00,48.9,25.7,30.12,ESE,111,2.0,2.0,40,0.00,,BKN080,0.00,0.00,VWS V14.01,2013-01-27 01:36:00,
2013-01-26 19:41:00,48.8,25.6,30.12,SE,135,1.0,1.0,40,0.00,,BKN080,0.00,0.00,VWS V14.01,2013-01-27 01:41:00,
2013-01-26 19:46:00,48.7,26.1,30.12,ESE,115,0.0,2.0,41,0.00,,BKN080,0.00,0.00,VWS V14.01,2013-01-27 01:46:00,
2013-01-26 19:51:00,48.6,26.6,30.12,ESE,122,0.0,4.0,42,0.00,,BKN080,0.00,0.00,VWS V14.01,2013-01-27 01:51:00,
2013-01-26 19:56:00,48.5,26.5,30.12,South,171,0.0,1.0,42,0.00,,BKN080,0.00,0.00,VWS V14.01,2013-01-27 01:56:00,
2013-01-26 20:01:00,48.3,26.3,30.12,SE,146,3.0,3.0,42,0.00,,OVC075,0.00,0.00,VWS V14.01,2013-01-27 02:01:00,
2013-01-26 20:06:00,48.2,26.2,30.12,ESE,103,3.0,6.0,42,0.00,,OVC075,0.00,0.00,VWS V14.01,2013-01-27 02:06:00,
2013-01-26 20:11:00,48.1,26.7,30.12,South,182,0.0,0.0,43,0.00,,OVC075,0.00,0.00,VWS V14.01,2013-01-27 02:11:00,
2013-01-26 20:16:00,48.0,27.1,30.12,SSE,149,0.0,1.0,44,0.00,,OVC075,0.00,0.00,VWS V14.01,2013-01-27 02:16:00,
2013-01-26 20:21:00,47.8,27.0,30.12,SSE,151,1.0,3.0,44,0.00,,OVC075,0.00,0.00,VWS V14.01,2013-01-27 02:21:00,
2013-01-26 20:26:00,47.7,26.9,30.12,SE,146,0.0,1.0,44,0.00,,OVC075,0.00,0.00,VWS V14.01,2013-01-27 02:26:00,
2013-01-26 20:31:00,47.6,27.3,30.12,SE,144,0.0,1.0,45,0.00,,OVC075,0.00,0.00,VWS V14.01,2013-01-27 02:31:00,
2013-01-26 20:37:00,47.5,27.2,30.12,SE,142,2.0,7.0,45,0.00,,OVC075,0.00,0.00,VWS V14.01,2013-01-27 02:37:00,
2013-01-26 20:42:00,47.4,27.1,30.12,ESE,117,0.0,3.0,45,0.00,,OVC075,0.00,0.00,VWS V14.01,2013-01-27 02:42:00,
2013-01-26 20:47:00,47.4,27.1,30.11,SE,128,3.0,3.0,45,0.00,,OVC075,0.00,0.00,VWS V14.01,2013-01-27 02:47:00,
2013-01-26 20:52:00,47.5,27.2,30.11,ESE,123,2.0,4.0,45,0.00,,OVC075,0.00,0.00,VWS V14.01,2013-01-27 02:52:00,
2013-01-26 20:57:00,47.5,27.8,30.11,East,87,0.0,5.0,46,0.00,,OVC075,0.00,0.00,VWS V14.01,2013-01-27 02:57:00,
2013-01-26 21:02:00,47.6,27.3,30.11,SE,143,2.0,3.0,45,0.00,,FEW070,0.00,0.00,VWS V14.01,2013-01-27 03:02:00,
2013-01-26 21:07:00,47.6,26.8,30.11,SE,140,4.0,9.0,44,0.00,,FEW070,0.00,0.00,VWS V14.01,2013-01-27 03:07:00,
2013-01-26 21:12:00,47.7,27.4,30.11,South,183,0.0,1.0,45,0.00,,FEW070,0.00,0.00,VWS V14.01,2013-01-27 03:12:00,
2013-01-26 21:17:00,47.8,27.0,30.12,South,173,0.0,5.0,44,0.00,,FEW070,0.00,0.00,VWS V14.01,2013-01-27 03:17:00,
2013-01-26 21:22:00,47.8,27.5,30.12,SSE,150,0.0,5.0,45,0.00,,FEW070,0.00,0.00,VWS V14.01,2013-01-27 03:22:00,
2013-01-26 21:27:00,47.8,27.5,30.12,SE,146,2.0,5.0,45,0.00,,FEW070,0.00,0.00,VWS V14.01,2013-01-27 03:27:00,
2013-01-26 21:32:00,47.7,28.0,30.12,ESE,123,4.0,4.0,46,0.00,,FEW070,0.00,0.00,VWS V14.01,2013-01-27 03:32:00,
2013-01-26 21:37:00,47.6,27.3,30.12,South,178,0.0,4.0,45,0.00,,FEW070,0.00,0.00,VWS V14.01,2013-01-27 03:37:00,
2013-01-26 21:42:00,47.5,27.2,30.12,South,169,0.0,4.0,45,0.00,,FEW070,0.00,0.00,VWS V14.01,2013-01-27 03:42:00,
2013-01-26 21:47:00,47.4,27.7,30.12,ESE,120,0.0,2.0,46,0.00,,FEW070,0.00,0.00,VWS V14.01,2013-01-27 03:47:00,
2013-01-26 21:52:00,47.2,27.5,30.12,ESE,110,0.0,2.0,46,0.00,,FEW070,0.00,0.00,VWS V14.01,2013-01-27 03:52:00,
2013-01-26 21:57:00,47.0,27.3,30.12,SW,214,0.0,2.0,46,0.00,,FEW070,0.00,0.00,VWS V14.01,2013-01-27 03:57:00,
2013-01-26 22:02:00,46.8,27.1,30.11,SE,142,2.0,5.0,46,0.00,,OVC060,0.00,0.00,VWS V14.01,2013-01-27 04:02:00,
2013-01-26 22:07:00,46.7,27.6,30.11,SSW,205,0.0,3.0,47,0.00,,OVC060,0.00,0.00,VWS V14.01,2013-01-27 04:07:00,
2013-01-26 22:12:00,46.5,27.4,30.11,SSW,196,2.0,6.0,47,0.00,,OVC060,0.00,0.00,VWS V14.01,2013-01-27 04:12:00,
2013-01-26 22:17:00,46.4,27.3,30.11,ESE,104,0.0,4.0,47,0.00,,OVC060,0.00,0.00,VWS V14.01,2013-01-27 04:17:00,
2013-01-26 22:22:00,46.3,27.2,30.11,SE,126,1.0,5.0,47,0.00,,OVC060,0.00,0.00,VWS V14.01,2013-01-27 04:22:00,
2013-01-26 22:27:00,46.2,27.1,30.11,SSE,161,5.0,7.0,47,0.00,,OVC060,0.00,0.00,VWS V14.01,2013-01-27 04:27:00,
2013-01-26 22:32:00,46.2,27.1,30.11,SE,146,0.0,4.0,47,0.00,,OVC060,0.00,0.00,VWS V14.01,2013-01-27 04:32:00,
2013-01-26 22:37:00,46.1,27.5,30.11,ESE,110,8.0,8.0,48,0.00,,OVC060,0.00,0.00,VWS V14.01,2013-01-27 04:37:00,
2013-01-26 22:43:00,46.1,27.0,30.11,SSE,164,0.0,7.0,47,0.00,,OVC060,0.00,0.00,VWS V14.01,2013-01-27 04:43:00,
2013-01-26 22:48:00,46.0,26.9,30.11,SSE,152,0.0,6.0,47,0.00,,OVC060,0.00,0.00,VWS V14.01,2013-01-27 04:48:00,
2013-01-26 22:53:00,45.9,26.8,30.11,SSE,152,2.0,5.0,47,0.00,,OVC060,0.00,0.00,VWS V14.01,2013-01-27 04:53:00,
2013-01-26 22:58:00,45.9,26.8,30.11,SSE,155,1.0,8.0,47,0.00,,OVC060,0.00,0.00,VWS V14.01,2013-01-27 04:58:00,
2013-01-26 23:00:00,45.8,26.7,30.10,South,182,1.0,8.0,47,0.00,,OVC060,0.00,0.00,VWS V14.01,2013-01-27 05:00:00,
2013-01-26 23:01:00,45.8,26.7,30.10,SE,137,6.0,10.0,47,0.00,,CLR,0.00,0.00,VWS V14.01,2013-01-27 05:01:00,
2013-01-26 23:04:00,45.8,26.7,30.10,SE,126,3.0,10.0,47,0.00,,CLR,0.00,0.00,VWS V14.01,2013-01-27 05:04:00,
2013-01-26 23:09:00,45.7,26.6,30.10,ESE,123,0.0,11.0,47,0.00,,CLR,0.00,0.00,VWS V14.01,2013-01-27 05:09:00,
2013-01-26 23:14:00,45.6,26.5,30.10,SSE,157,2.0,10.0,47,0.00,,CLR,0.00,0.00,VWS V14.01,2013-01-27 05:14:00,
2013-01-26 23:15:00,45.6,26.5,30.11,SE,130,4.0,10.0,47,0.00,,CLR,0.00,0.00,VWS V14.01,2013-01-27 05:15:00,
2013-01-26 23:20:00,45.5,26.5,30.11,ESE,119,1.0,7.0,47,0.00,,CLR,0.00,0.00,VWS V14.01,2013-01-27 05:20:00,
2013-01-26 23:25:00,45.5,27.0,30.11,ESE,113,0.0,6.0,48,0.00,,CLR,0.00,0.00,VWS V14.01,2013-01-27 05:25:00,
2013-01-26 23:30:00,45.5,27.0,30.11,East,92,5.0,6.0,48,0.00,,CLR,0.00,0.00,VWS V14.01,2013-01-27 05:30:00,
2013-01-26 23:35:00,45.5,27.0,30.11,SE,131,3.0,7.0,48,0.00,,CLR,0.00,0.00,VWS V14.01,2013-01-27 05:35:00,
2013-01-26 23:40:00,45.5,27.5,30.11,ESE,122,4.0,8.0,49,0.00,,CLR,0.00,0.00,VWS V14.01,2013-01-27 05:40:00,
2013-01-26 23:45:00,45.4,27.4,30.10,WSW,244,2.0,12.0,49,0.00,,CLR,0.00,0.00,VWS V14.01,2013-01-27 05:45:00,
2013-01-26 23:51:00,45.4,27.4,30.10,South,180,0.0,6.0,49,0.00,,CLR,0.00,0.00,VWS V14.01,2013-01-27 05:51:00,
2013-01-26 23:56:00,45.3,27.8,30.10,South,171,1.0,5.0,50,0.00,,CLR,0.00,0.00,VWS V14.01,2013-01-27 05:56:00,